createdAt,value
2022-11-02T00:01:26.673Z,1.73
2022-11-02T00:03:57.117Z,1.00
2022-11-02T00:06:26.189Z,1.23
2022-11-02T00:08:55.570Z,1.20
2022-11-02T00:11:24.899Z,1.10
2022-11-02T00:13:53.942Z,1.25
2022-11-02T00:16:23.933Z,1.00
2022-11-02T00:18:54.056Z,0.85
2022-11-02T00:21:25.457Z,1.02
2022-11-02T00:23:55.435Z,1.00
2022-11-02T00:26:24.593Z,0.70
2022-11-02T00:28:54.449Z,1.17
2022-11-02T00:31:23.631Z,0.90
2022-11-02T00:33:53.418Z,1.60
2022-11-02T00:36:24.924Z,0.93
2022-11-02T00:38:54.002Z,1.48
2022-11-02T00:41:23.418Z,0.70
2022-11-02T00:43:52.626Z,0.70
2022-11-02T00:46:21.594Z,0.63
2022-11-02T00:48:50.850Z,0.63
2022-11-02T00:51:19.916Z,0.60
2022-11-02T00:53:50.360Z,0.60
2022-11-02T00:56:20.661Z,0.68
2022-11-02T00:58:50.148Z,0.68
2022-11-02T01:01:19.374Z,0.40
2022-11-02T01:03:48.500Z,0.43
2022-11-02T01:06:17.732Z,0.52
2022-11-02T01:08:46.856Z,0.60
2022-11-02T01:11:18.476Z,0.47
2022-11-02T01:13:47.867Z,0.32
2022-11-02T01:16:17.125Z,0.52
2022-11-02T01:18:46.230Z,1.00
2022-11-02T01:21:15.391Z,0.38
2022-11-02T01:23:44.736Z,0.57
2022-11-02T01:26:13.962Z,0.40
2022-11-02T01:28:44.948Z,1.27
2022-11-02T01:31:15.269Z,0.80
2022-11-02T01:33:46.071Z,0.50
2022-11-02T01:36:15.773Z,0.50
2022-11-02T01:38:44.896Z,0.52
2022-11-02T01:41:14.109Z,0.43
2022-11-02T01:43:45.856Z,0.50
2022-11-02T01:46:18.244Z,0.77
2022-11-02T01:48:49.516Z,0.70
2022-11-02T01:51:23.407Z,0.50
2022-11-02T01:53:53.490Z,0.60
2022-11-02T01:56:24.512Z,0.50
2022-11-02T01:58:56.524Z,0.50
2022-11-02T02:01:26.192Z,0.50
2022-11-02T02:03:56.951Z,0.65
2022-11-02T02:06:27.548Z,0.75
2022-11-02T02:08:59.037Z,0.50
2022-11-02T02:11:32.790Z,0.82
2022-11-02T02:14:05.371Z,0.45
2022-11-02T02:19:24.962Z,0.60
2022-11-02T02:22:03.738Z,0.90
2022-11-02T02:24:46.155Z,0.60
2022-11-02T02:27:21.041Z,0.50
2022-11-02T02:30:09.698Z,0.73
2022-11-02T02:32:46.103Z,0.93
2022-11-02T02:35:21.177Z,1.30
2022-11-02T02:37:56.060Z,1.63
2022-11-02T02:40:31.241Z,0.80
2022-11-02T02:43:03.299Z,0.57
2022-11-02T02:45:37.225Z,0.85
2022-11-02T02:48:09.674Z,0.70
2022-11-02T02:50:43.116Z,1.30
2022-11-02T02:53:16.885Z,0.90
2022-11-02T02:55:47.861Z,1.40
2022-11-02T02:58:19.399Z,0.70
2022-11-02T03:00:53.310Z,0.80
2022-11-02T03:03:29.563Z,0.75
2022-11-02T03:06:04.136Z,0.52
2022-11-02T03:08:40.234Z,0.77
2022-11-02T03:11:15.344Z,0.77
2022-11-02T03:13:51.553Z,0.55
2022-11-02T03:16:29.105Z,1.00
2022-11-02T03:19:02.814Z,0.63
2022-11-02T03:21:38.597Z,1.33
2022-11-02T03:24:13.482Z,1.02
2022-11-02T03:26:46.173Z,1.42
2022-11-02T03:29:18.844Z,1.85
2022-11-02T03:31:57.670Z,2.75
2022-11-02T03:34:33.933Z,1.00
2022-11-02T03:39:41.779Z,1.00
2022-11-02T03:42:13.773Z,1.63
2022-11-02T03:44:43.995Z,0.75
2022-11-02T03:47:19.953Z,0.70
2022-11-02T03:49:55.882Z,0.70
2022-11-02T03:52:32.425Z,1.40
2022-11-02T03:55:06.947Z,0.80
2022-11-02T03:57:40.747Z,1.58
2022-11-02T04:00:12.244Z,1.17
2022-11-02T04:02:52.549Z,1.10
2022-11-02T04:05:22.618Z,1.90
2022-11-02T04:08:11.951Z,0.90
2022-11-02T04:11:09.108Z,0.80
2022-11-02T04:13:56.318Z,0.82
2022-11-02T04:16:34.709Z,0.80
2022-11-02T04:19:26.495Z,1.00
2022-11-02T04:22:34.138Z,1.85
2022-11-02T04:25:19.688Z,1.00
2022-11-02T04:28:13.204Z,1.08
2022-11-02T04:31:04.836Z,1.02
2022-11-02T04:33:38.822Z,1.23
2022-11-02T04:36:20.823Z,1.25
2022-11-02T04:38:54.898Z,1.27
2022-11-02T04:41:49.399Z,0.90
2022-11-02T04:44:33.069Z,1.42
2022-11-02T04:47:06.690Z,1.60
2022-11-02T04:49:37.519Z,1.23
2022-11-02T04:52:13.393Z,1.10
2022-11-02T04:54:48.120Z,1.40
2022-11-02T04:57:17.588Z,1.15
2022-11-02T04:59:47.590Z,1.10
2022-11-02T05:02:17.441Z,1.02
2022-11-02T05:04:47.495Z,1.60
2022-11-02T05:07:19.013Z,2.50
2022-11-02T05:09:48.390Z,1.33
2022-11-02T05:12:18.223Z,1.90
2022-11-02T05:14:47.908Z,1.35
2022-11-02T05:17:17.692Z,0.77
2022-11-02T05:19:47.617Z,1.33
2022-11-02T05:22:17.550Z,0.93
2022-11-02T05:24:50.639Z,1.83
2022-11-02T05:27:28.192Z,1.00
2022-11-02T05:30:10.302Z,1.42
2022-11-02T05:32:41.796Z,1.25
2022-11-02T05:35:12.893Z,1.27
2022-11-02T05:37:45.012Z,1.98
2022-11-02T05:40:17.306Z,1.20
2022-11-02T05:42:48.085Z,1.60
2022-11-02T05:45:22.072Z,1.30
2022-11-02T05:48:00.029Z,1.35
2022-11-02T05:50:31.248Z,1.88
2022-11-02T05:53:04.037Z,1.42
2022-11-02T05:55:44.898Z,1.42
2022-11-02T05:58:21.920Z,1.52
2022-11-02T06:00:56.484Z,1.35
2022-11-02T06:06:20.711Z,1.25
2022-11-02T06:08:51.881Z,1.92
2022-11-02T06:11:24.418Z,0.73
2022-11-02T06:14:05.937Z,1.85
2022-11-02T06:16:38.290Z,1.77
2022-11-02T06:19:08.727Z,0.88
2022-11-02T06:21:44.463Z,1.23
2022-11-02T06:24:17.982Z,1.35
2022-11-02T06:26:58.442Z,1.20
2022-11-02T06:29:28.951Z,2.20
2022-11-02T06:32:15.428Z,1.17
2022-11-02T06:34:47.546Z,1.35
2022-11-02T06:40:06.201Z,1.27
2022-11-02T06:43:03.249Z,1.20
2022-11-02T06:45:39.337Z,1.10
2022-11-02T06:48:11.432Z,1.63
2022-11-02T06:50:50.560Z,1.10
2022-11-02T06:53:23.682Z,1.50
2022-11-02T06:56:02.553Z,1.42
2022-11-02T06:58:37.911Z,1.83
2022-11-02T07:01:14.399Z,1.83
2022-11-02T07:03:51.261Z,1.20
2022-11-02T07:06:25.253Z,2.13
2022-11-02T07:11:54.331Z,0.73
2022-11-02T07:14:40.797Z,1.30
2022-11-02T07:17:12.835Z,1.08
2022-11-02T07:19:42.652Z,1.73
2022-11-02T07:22:13.332Z,2.42
2022-11-02T07:24:43.829Z,2.42
2022-11-02T07:27:16.234Z,1.40
2022-11-02T07:30:02.312Z,2.05
2022-11-02T07:32:37.806Z,1.20
2022-11-02T07:35:18.990Z,1.52
2022-11-02T07:38:03.452Z,1.43
2022-11-02T07:40:39.904Z,1.65
2022-11-02T07:46:08.226Z,1.30
2022-11-02T07:48:51.394Z,1.35
2022-11-02T07:51:21.998Z,1.33
2022-11-02T07:53:55.017Z,2.38
2022-11-02T07:56:30.199Z,1.48
2022-11-02T07:59:06.945Z,2.15
2022-11-02T08:02:05.726Z,1.30
2022-11-02T08:04:46.281Z,1.05
2022-11-02T08:07:22.672Z,1.10
2022-11-02T08:10:03.789Z,1.85
2022-11-02T08:12:42.911Z,1.75
2022-11-02T08:15:31.491Z,2.53
2022-11-02T08:18:08.373Z,2.25
2022-11-02T08:20:46.981Z,1.38
2022-11-02T08:23:21.000Z,3.10
2022-11-02T08:25:51.370Z,2.22
2022-11-02T08:28:26.392Z,1.60
2022-11-02T08:31:09.548Z,2.80
2022-11-02T08:34:04.779Z,1.30
2022-11-02T08:36:47.702Z,1.90
2022-11-02T08:39:23.996Z,1.83
2022-11-02T08:42:01.330Z,1.70
2022-11-02T08:44:42.365Z,1.30
2022-11-02T08:47:15.895Z,1.75
2022-11-02T08:49:50.279Z,2.38
2022-11-02T08:52:41.351Z,1.77
2022-11-02T08:55:15.516Z,1.55
2022-11-02T08:57:51.383Z,1.90
2022-11-02T09:00:43.759Z,1.67
2022-11-02T09:03:27.184Z,1.35
2022-11-02T09:06:18.944Z,2.15
2022-11-02T09:08:52.730Z,1.73
2022-11-02T09:11:28.363Z,1.73
2022-11-02T09:14:10.170Z,1.83
2022-11-02T09:16:41.923Z,1.20
2022-11-02T09:19:11.586Z,1.23
2022-11-02T09:21:44.688Z,1.45
2022-11-02T09:24:14.418Z,2.20
2022-11-02T09:26:43.964Z,2.00
2022-11-02T09:29:14.836Z,1.20
2022-11-02T09:31:49.133Z,1.63
2022-11-02T09:34:21.673Z,1.77
2022-11-02T09:36:59.183Z,1.52
2022-11-02T09:39:28.568Z,1.95
2022-11-02T09:42:03.858Z,2.03
2022-11-02T09:44:46.415Z,1.15
2022-11-02T09:48:02.887Z,2.03
2022-11-02T09:50:05.754Z,1.65
2022-11-02T09:52:41.898Z,1.85
2022-11-02T09:55:15.933Z,1.48
2022-11-02T09:57:50.637Z,1.42
2022-11-02T10:00:20.620Z,2.13
2022-11-02T10:02:54.529Z,1.42
2022-11-02T10:05:36.918Z,2.13
2022-11-02T10:08:26.512Z,1.95
2022-11-02T10:11:08.106Z,3.10
2022-11-02T10:13:46.506Z,1.30
2022-11-02T10:16:24.022Z,1.50
2022-11-02T10:18:59.426Z,1.58
2022-11-02T10:21:41.109Z,1.33
2022-11-02T10:24:27.908Z,1.52
2022-11-02T10:27:07.949Z,1.92
2022-11-02T10:29:45.766Z,1.67
2022-11-02T10:32:22.563Z,1.23
2022-11-02T10:34:59.333Z,1.35
2022-11-02T10:37:51.429Z,1.85
2022-11-02T10:40:47.134Z,1.95
2022-11-02T10:43:36.073Z,1.83
2022-11-02T10:46:22.435Z,1.52
2022-11-02T10:48:58.197Z,1.27
2022-11-02T10:51:34.271Z,1.90
2022-11-02T10:56:46.244Z,1.85
2022-11-02T10:59:17.150Z,3.47
2022-11-02T11:01:53.921Z,1.38
2022-11-02T11:04:25.412Z,1.85
2022-11-02T11:06:57.437Z,1.50
2022-11-02T11:09:30.979Z,2.80
2022-11-02T11:12:25.681Z,1.40
2022-11-02T11:20:45.711Z,2.97
2022-11-02T11:23:21.100Z,2.00
2022-11-02T11:26:01.189Z,2.58
2022-11-02T11:31:23.779Z,1.60
2022-11-02T11:34:03.217Z,2.58
2022-11-02T11:36:35.026Z,1.75
2022-11-02T11:39:07.811Z,1.85
2022-11-02T11:41:44.567Z,1.90
2022-11-02T11:44:18.569Z,1.42
2022-11-02T11:46:50.446Z,1.73
2022-11-02T11:49:41.711Z,1.60
2022-11-02T11:52:30.901Z,1.60
2022-11-02T11:55:27.876Z,3.10
2022-11-02T11:58:20.733Z,1.25
2022-11-02T12:01:10.306Z,1.60
2022-11-02T12:04:03.084Z,1.92
2022-11-02T12:07:00.814Z,2.22
2022-11-02T12:09:44.402Z,2.53
2022-11-02T12:12:18.716Z,1.75
2022-11-02T12:14:54.968Z,2.25
2022-11-02T12:17:32.489Z,1.77
2022-11-02T12:20:24.996Z,1.63
2022-11-02T12:23:04.342Z,3.15
2022-11-02T12:25:41.393Z,1.30
2022-11-02T12:28:20.058Z,2.20
2022-11-02T12:31:09.386Z,1.83
2022-11-02T12:33:49.129Z,2.30
2022-11-02T12:36:29.210Z,2.20
2022-11-02T12:39:11.723Z,1.90
2022-11-02T12:41:46.304Z,3.95
2022-11-02T12:44:27.767Z,2.47
2022-11-02T12:47:09.247Z,4.00
2022-11-02T12:49:48.605Z,1.80
2022-11-02T12:52:25.929Z,1.60
2022-11-02T12:55:03.899Z,2.33
2022-11-02T12:57:40.011Z,2.38
2022-11-02T13:00:18.168Z,3.55
2022-11-02T13:02:51.866Z,2.45
2022-11-02T13:05:30.983Z,1.45
2022-11-02T13:08:05.204Z,1.88
2022-11-02T13:10:49.350Z,2.78
2022-11-02T13:13:28.499Z,2.42
2022-11-02T13:16:05.478Z,2.38
2022-11-02T13:18:40.374Z,2.40
2022-11-02T13:21:17.736Z,2.15
2022-11-02T13:23:49.825Z,2.38
2022-11-02T13:26:27.825Z,2.65
2022-11-02T13:29:12.637Z,2.05
2022-11-02T13:31:53.400Z,2.25
2022-11-02T13:34:31.077Z,2.15
2022-11-02T13:37:05.625Z,2.05
2022-11-02T13:39:49.061Z,2.40
2022-11-02T13:42:38.726Z,2.88
2022-11-02T13:45:26.075Z,3.72
2022-11-02T13:48:10.192Z,3.40
2022-11-02T13:50:44.381Z,2.40
2022-11-02T13:53:22.809Z,2.17
2022-11-02T13:55:54.669Z,2.40
2022-11-02T13:58:29.253Z,2.30
2022-11-02T14:01:06.589Z,3.08
2022-11-02T14:04:01.711Z,2.53
2022-11-02T14:06:49.218Z,1.90
2022-11-02T14:09:45.563Z,2.80
2022-11-02T14:12:45.662Z,3.22
2022-11-02T14:15:49.049Z,3.35
2022-11-02T14:18:56.490Z,2.15
2022-11-02T14:22:05.829Z,2.22
2022-11-02T14:25:18.031Z,3.05
2022-11-02T14:28:15.700Z,3.38
2022-11-02T14:30:50.016Z,2.72
2022-11-02T14:33:34.079Z,2.40
2022-11-02T14:36:17.680Z,2.42
2022-11-02T14:41:52.504Z,2.85
2022-11-02T14:45:00.031Z,4.10
2022-11-02T14:47:36.479Z,2.53
2022-11-02T14:50:16.825Z,2.85
2022-11-02T14:53:04.623Z,4.18
2022-11-02T14:55:39.197Z,2.70
2022-11-02T14:58:18.919Z,1.75
2022-11-02T15:01:05.539Z,3.20
2022-11-02T15:03:43.598Z,3.10
2022-11-02T15:06:21.159Z,2.83
2022-11-02T15:09:15.072Z,2.28
2022-11-02T15:12:29.045Z,2.92
2022-11-02T15:15:23.357Z,1.95
2022-11-02T15:18:20.500Z,3.00
2022-11-02T15:21:10.888Z,3.72
2022-11-02T15:23:57.142Z,1.90
2022-11-02T15:26:33.286Z,3.65
2022-11-02T15:29:06.535Z,2.25
2022-11-02T15:31:37.437Z,2.40
2022-11-02T15:34:15.456Z,2.50
2022-11-02T15:36:52.677Z,2.13
2022-11-02T15:39:33.197Z,2.83
2022-11-02T15:42:10.974Z,3.58
2022-11-02T15:45:14.165Z,2.75
2022-11-02T15:48:02.686Z,2.97
2022-11-02T15:50:42.782Z,2.33
2022-11-02T15:53:24.822Z,2.88
2022-11-02T15:56:29.024Z,2.55
2022-11-02T15:59:17.026Z,2.72
2022-11-02T16:01:56.379Z,3.50
2022-11-02T16:08:10.792Z,2.80
2022-11-02T16:10:40.530Z,2.38
2022-11-02T16:13:17.358Z,2.75
2022-11-02T16:15:49.591Z,3.15
2022-11-02T16:18:25.177Z,3.47
2022-11-02T16:20:56.226Z,1.85
2022-11-02T16:23:27.821Z,2.00
2022-11-02T16:25:58.300Z,2.53
2022-11-02T16:28:28.565Z,2.30
2022-11-02T16:31:01.737Z,2.30
2022-11-02T16:33:32.903Z,3.20
2022-11-02T16:36:02.952Z,2.63
2022-11-02T16:38:33.572Z,3.22
2022-11-02T16:41:05.886Z,1.83
2022-11-02T16:43:36.153Z,2.60
2022-11-02T16:46:07.054Z,3.40
2022-11-02T16:48:36.101Z,2.90
2022-11-02T16:51:10.537Z,2.85
2022-11-02T16:53:45.065Z,3.10
2022-11-02T16:56:16.314Z,2.33
2022-11-02T16:58:48.676Z,3.20
2022-11-02T17:01:21.961Z,2.28
2022-11-02T17:03:51.525Z,2.33
2022-11-02T17:06:21.119Z,2.55
2022-11-02T17:08:55.126Z,3.92
2022-11-02T17:11:24.512Z,2.90
2022-11-02T17:13:54.895Z,2.50
2022-11-02T17:16:24.587Z,3.75
2022-11-02T17:18:54.059Z,3.60
2022-11-02T17:21:29.098Z,3.67
2022-11-02T17:24:00.709Z,3.55
2022-11-02T17:26:31.697Z,3.45
2022-11-02T17:29:01.807Z,3.58
2022-11-02T17:31:32.795Z,2.88
2022-11-02T17:34:03.665Z,2.50
2022-11-02T17:36:33.267Z,2.53
2022-11-02T17:39:07.497Z,3.55
2022-11-02T17:41:57.863Z,3.33
2022-11-02T17:44:27.119Z,2.90
2022-11-02T17:46:56.957Z,3.80
2022-11-02T17:49:26.443Z,3.30
2022-11-02T17:51:56.379Z,2.67
2022-11-02T17:54:27.028Z,3.40
2022-11-02T17:56:56.497Z,3.20
2022-11-02T17:59:25.746Z,2.65
2022-11-02T18:01:55.325Z,2.70
2022-11-02T18:04:25.144Z,3.58
2022-11-02T18:06:54.537Z,3.13
2022-11-02T18:11:59.594Z,2.90
2022-11-02T18:14:28.730Z,2.05
2022-11-02T18:16:57.740Z,2.53
2022-11-02T18:19:28.182Z,2.50
2022-11-02T18:21:57.639Z,2.80
2022-11-02T18:24:26.716Z,3.10
2022-11-02T18:26:55.682Z,2.80
2022-11-02T18:29:26.157Z,3.03
2022-11-02T18:31:55.261Z,2.42
2022-11-02T18:34:24.315Z,2.13
2022-11-02T18:36:55.248Z,2.40
2022-11-02T18:39:28.008Z,2.17
2022-11-02T18:41:59.741Z,2.95
2022-11-02T18:46:59.529Z,2.33
2022-11-02T18:49:30.946Z,3.85
2022-11-02T18:52:01.510Z,2.40
2022-11-02T18:54:31.079Z,3.72
2022-11-02T18:57:00.228Z,2.65
2022-11-02T18:59:29.347Z,3.80
2022-11-02T19:02:00.163Z,2.75
2022-11-02T19:04:29.964Z,2.42
2022-11-02T19:07:16.711Z,2.67
2022-11-02T19:09:46.085Z,2.50
2022-11-02T19:12:16.503Z,4.68
2022-11-02T19:14:47.172Z,2.60
2022-11-02T19:17:19.909Z,2.65
2022-11-02T19:19:50.829Z,4.15
2022-11-02T19:22:23.855Z,2.63
2022-11-02T19:24:53.449Z,3.78
2022-11-02T19:27:23.691Z,3.10
2022-11-02T19:29:53.363Z,3.40
2022-11-02T19:32:24.102Z,2.88
2022-11-02T19:34:53.684Z,3.28
2022-11-02T19:37:23.119Z,3.38
2022-11-02T19:39:55.383Z,3.63
2022-11-02T19:42:28.256Z,2.92
2022-11-02T19:44:57.649Z,2.83
2022-11-02T19:47:28.757Z,2.97
2022-11-02T19:49:58.322Z,2.40
2022-11-02T19:52:28.044Z,2.60
2022-11-02T19:54:58.666Z,2.35
2022-11-02T19:57:33.048Z,2.00
2022-11-02T20:00:05.880Z,3.05
2022-11-02T20:02:39.991Z,3.28
2022-11-02T20:05:11.464Z,2.70
2022-11-02T20:07:41.085Z,2.85
2022-11-02T20:10:11.067Z,4.80
2022-11-02T20:12:41.473Z,2.35
2022-11-02T20:15:14.443Z,2.47
2022-11-02T20:18:13.450Z,2.75
2022-11-02T20:20:36.744Z,2.72
2022-11-02T20:23:06.487Z,2.78
2022-11-02T20:25:35.770Z,3.40
2022-11-02T20:28:05.340Z,2.70
2022-11-02T20:30:34.627Z,2.15
2022-11-02T20:33:11.420Z,3.65
2022-11-02T20:35:49.971Z,3.53
2022-11-02T20:38:23.584Z,2.10
2022-11-02T20:40:58.884Z,3.35
2022-11-02T20:43:32.867Z,4.28
2022-11-02T20:47:03.938Z,3.40
2022-11-02T20:53:14.614Z,2.38
2022-11-02T20:56:01.103Z,3.60
2022-11-02T20:58:32.449Z,3.42
2022-11-02T21:01:11.405Z,3.13
2022-11-02T21:03:42.437Z,2.90
2022-11-02T21:06:16.848Z,3.33
2022-11-02T21:08:58.483Z,3.25
2022-11-02T21:11:58.573Z,3.03
2022-11-02T21:14:44.954Z,3.50
2022-11-02T21:17:21.303Z,3.33
2022-11-02T21:23:23.963Z,3.35
2022-11-02T21:26:02.542Z,4.07
2022-11-02T21:28:42.596Z,3.63
2022-11-02T21:31:28.464Z,3.38
2022-11-02T21:34:01.891Z,3.05
2022-11-02T21:36:46.656Z,2.80
2022-11-02T21:39:38.415Z,3.83
2022-11-02T21:42:17.702Z,4.03
2022-11-02T21:44:57.115Z,3.45
2022-11-02T21:47:35.609Z,3.10
2022-11-02T21:50:18.040Z,3.47
2022-11-02T21:55:20.017Z,3.28
2022-11-02T21:57:58.969Z,2.38
2022-11-02T22:00:52.391Z,2.67
2022-11-02T22:03:25.783Z,3.00
2022-11-02T22:06:11.999Z,2.90
2022-11-02T22:08:42.662Z,3.50
2022-11-02T22:11:15.824Z,3.35
2022-11-02T22:13:46.105Z,2.75
2022-11-02T22:16:25.033Z,3.40
2022-11-02T22:18:55.402Z,2.83
2022-11-02T22:21:27.272Z,2.22
2022-11-02T22:23:57.491Z,2.25
2022-11-02T22:26:34.412Z,2.30
2022-11-02T22:29:07.260Z,2.30
2022-11-02T22:31:38.007Z,2.58
2022-11-02T22:34:08.542Z,3.88
2022-11-02T22:36:40.687Z,2.78
2022-11-02T22:39:12.554Z,2.63
2022-11-02T22:41:46.095Z,2.13
2022-11-02T22:44:23.263Z,2.20
2022-11-02T22:46:53.475Z,3.20
2022-11-02T22:49:23.217Z,2.50
2022-11-02T22:51:56.768Z,1.95
2022-11-02T22:54:27.099Z,2.10
2022-11-02T22:56:59.212Z,2.30
2022-11-02T22:59:30.208Z,2.03
2022-11-02T23:02:03.606Z,2.38
2022-11-02T23:04:36.280Z,1.53
2022-11-02T23:07:12.056Z,1.55
2022-11-02T23:09:53.985Z,1.65
2022-11-02T23:12:28.852Z,1.88
2022-11-02T23:14:58.540Z,1.88
2022-11-02T23:17:28.010Z,2.30
2022-11-02T23:22:59.908Z,2.10
2022-11-02T23:25:37.882Z,2.28
2022-11-02T23:28:26.427Z,2.00
2022-11-02T23:31:14.743Z,2.25
2022-11-02T23:33:49.031Z,1.73
2022-11-02T23:36:18.159Z,2.03
2022-11-02T23:39:06.327Z,1.92
2022-11-02T23:41:38.230Z,2.33
2022-11-02T23:44:19.812Z,1.95
2022-11-02T23:46:51.132Z,2.30
2022-11-02T23:49:22.586Z,1.17
2022-11-02T23:52:18.167Z,1.45
2022-11-02T23:55:07.735Z,2.08
2022-11-02T23:57:42.304Z,2.47
